sensor_id;sensor_type;location;lat;lon;timestamp;pressure;altitude;pressure_sealevel;temperature;humidity
64711;BME280;51139;45.626;6.850;2023-03-25T00:00:03;81833.84;;;1.97;100.00
64711;BME280;51139;45.626;6.850;2023-03-25T00:02:40;81847.94;;;1.81;100.00
64711;BME280;51139;45.626;6.850;2023-03-25T00:05:06;81843.63;;;1.83;100.00
64711;BME280;51139;45.626;6.850;2023-03-25T00:07:32;81843.97;;;1.53;100.00
64711;BME280;51139;45.626;6.850;2023-03-25T00:09:57;81844.25;;;1.49;100.00
64711;BME280;51139;45.626;6.850;2023-03-25T00:12:23;81842.56;;;1.38;100.00
64711;BME280;51139;45.626;6.850;2023-03-25T00:14:48;81847.88;;;1.46;100.00
64711;BME280;51139;45.626;6.850;2023-03-25T00:17:22;81842.16;;;1.48;100.00
64711;BME280;51139;45.626;6.850;2023-03-25T00:19:47;81844.25;;;1.49;100.00
64711;BME280;51139;45.626;6.850;2023-03-25T00:22:18;81850.47;;;1.59;100.00
64711;BME280;51139;45.626;6.850;2023-03-25T00:24:45;81854.28;;;1.58;100.00
64711;BME280;51139;45.626;6.850;2023-03-25T00:27:10;81846.44;;;1.72;100.00
64711;BME280;51139;45.626;6.850;2023-03-25T00:29:36;81845.78;;;1.58;100.00
64711;BME280;51139;45.626;6.850;2023-03-25T00:32:01;81852.69;;;1.55;100.00
64711;BME280;51139;45.626;6.850;2023-03-25T00:34:27;81847.84;;;1.86;100.00
64711;BME280;51139;45.626;6.850;2023-03-25T00:36:52;81833.38;;;1.99;100.00
64711;BME280;51139;45.626;6.850;2023-03-25T00:39:17;81840.97;;;1.35;99.54
64711;BME280;51139;45.626;6.850;2023-03-25T00:41:43;81843.13;;;1.31;100.00
64711;BME280;51139;45.626;6.850;2023-03-25T00:44:10;81843.94;;;1.26;100.00
64711;BME280;51139;45.626;6.850;2023-03-25T00:46:38;81829.69;;;1.67;100.00
64711;BME280;51139;45.626;6.850;2023-03-25T00:49:04;81828.09;;;1.37;99.21
64711;BME280;51139;45.626;6.850;2023-03-25T00:51:29;81821.47;;;1.63;93.61
64711;BME280;51139;45.626;6.850;2023-03-25T00:53:58;81820.09;;;1.97;93.41
64711;BME280;51139;45.626;6.850;2023-03-25T00:56:28;81816.03;;;1.74;97.88
64711;BME280;51139;45.626;6.850;2023-03-25T00:58:55;81822.47;;;1.60;99.81
64711;BME280;51139;45.626;6.850;2023-03-25T01:01:23;81810.94;;;1.42;100.00
64711;BME280;51139;45.626;6.850;2023-03-25T01:03:51;81818.34;;;1.38;100.00
64711;BME280;51139;45.626;6.850;2023-03-25T01:06:41;81820.25;;;1.64;100.00
64711;BME280;51139;45.626;6.850;2023-03-25T01:09:09;81820.34;;;1.58;100.00
64711;BME280;51139;45.626;6.850;2023-03-25T01:11:38;81822.25;;;1.71;97.71
64711;BME280;51139;45.626;6.850;2023-03-25T01:14:07;81814.72;;;1.54;96.81
64711;BME280;51139;45.626;6.850;2023-03-25T01:16:33;81818.59;;;1.88;94.66
64711;BME280;51139;45.626;6.850;2023-03-25T01:18:59;81818.13;;;1.63;94.96
64711;BME280;51139;45.626;6.850;2023-03-25T01:21:25;81828.38;;;1.74;97.54
64711;BME280;51139;45.626;6.850;2023-03-25T01:23:50;81829.47;;;1.79;99.65
64711;BME280;51139;45.626;6.850;2023-03-25T01:26:16;81829.28;;;1.77;100.00
64711;BME280;51139;45.626;6.850;2023-03-25T01:28:43;81826.41;;;2.01;100.00
64711;BME280;51139;45.626;6.850;2023-03-25T01:31:11;81824.56;;;1.62;100.00
64711;BME280;51139;45.626;6.850;2023-03-25T01:33:37;81829.91;;;1.42;100.00
64711;BME280;51139;45.626;6.850;2023-03-25T01:36:03;81826.50;;;1.34;100.00
64711;BME280;51139;45.626;6.850;2023-03-25T01:38:33;81827.88;;;0.95;100.00
64711;BME280;51139;45.626;6.850;2023-03-25T01:40:58;81827.91;;;1.49;100.00
64711;BME280;51139;45.626;6.850;2023-03-25T01:43:24;81833.22;;;1.56;100.00
64711;BME280;51139;45.626;6.850;2023-03-25T01:45:50;81829.41;;;1.30;100.00
64711;BME280;51139;45.626;6.850;2023-03-25T01:50:52;81824.28;;;1.65;100.00
64711;BME280;51139;45.626;6.850;2023-03-25T01:53:18;81814.44;;;1.17;100.00
64711;BME280;51139;45.626;6.850;2023-03-25T01:55:44;81807.59;;;0.87;100.00
64711;BME280;51139;45.626;6.850;2023-03-25T01:58:14;81800.53;;;0.55;100.00
64711;BME280;51139;45.626;6.850;2023-03-25T02:00:43;81793.31;;;0.48;100.00
64711;BME280;51139;45.626;6.850;2023-03-25T02:03:10;81783.28;;;0.52;100.00
64711;BME280;51139;45.626;6.850;2023-03-25T02:05:58;81779.63;;;0.42;100.00
64711;BME280;51139;45.626;6.850;2023-03-25T02:08:25;81776.81;;;0.99;100.00
64711;BME280;51139;45.626;6.850;2023-03-25T02:10:51;81774.19;;;0.86;100.00
64711;BME280;51139;45.626;6.850;2023-03-25T02:13:17;81773.81;;;1.09;100.00
64711;BME280;51139;45.626;6.850;2023-03-25T02:18:41;81767.41;;;0.96;100.00
64711;BME280;51139;45.626;6.850;2023-03-25T02:27:15;81763.47;;;0.90;100.00
64711;BME280;51139;45.626;6.850;2023-03-25T02:46:06;81763.22;;;0.47;100.00
64711;BME280;51139;45.626;6.850;2023-03-25T02:48:39;81764.56;;;0.81;100.00
64711;BME280;51139;45.626;6.850;2023-03-25T02:51:12;81773.28;;;1.10;100.00
64711;BME280;51139;45.626;6.850;2023-03-25T02:53:40;81758.06;;;1.01;100.00
64711;BME280;51139;45.626;6.850;2023-03-25T02:56:11;81762.47;;;0.66;100.00
64711;BME280;51139;45.626;6.850;2023-03-25T02:58:38;81747.72;;;0.95;100.00
64711;BME280;51139;45.626;6.850;2023-03-25T03:01:04;81758.66;;;0.94;100.00
64711;BME280;51139;45.626;6.850;2023-03-25T03:03:30;81754.56;;;0.98;100.00
64711;BME280;51139;45.626;6.850;2023-03-25T03:05:58;81761.97;;;1.08;100.00
64711;BME280;51139;45.626;6.850;2023-03-25T03:08:40;81761.06;;;0.92;100.00
64711;BME280;51139;45.626;6.850;2023-03-25T03:16:43;81758.25;;;0.76;100.00
64711;BME280;51139;45.626;6.850;2023-03-25T03:22:32;81745.47;;;0.32;100.00
64711;BME280;51139;45.626;6.850;2023-03-25T03:27:45;81728.41;;;0.18;100.00
64711;BME280;51139;45.626;6.850;2023-03-25T03:30:17;81741.53;;;0.25;100.00
64711;BME280;51139;45.626;6.850;2023-03-25T03:35:47;81745.00;;;0.61;100.00
64711;BME280;51139;45.626;6.850;2023-03-25T03:38:20;81736.59;;;0.68;100.00
64711;BME280;51139;45.626;6.850;2023-03-25T03:40:53;81748.94;;;0.21;100.00
64711;BME280;51139;45.626;6.850;2023-03-25T03:46:20;81752.13;;;0.14;100.00
64711;BME280;51139;45.626;6.850;2023-03-25T03:48:51;81761.84;;;0.46;100.00
64711;BME280;51139;45.626;6.850;2023-03-25T03:51:31;81760.09;;;0.35;100.00
64711;BME280;51139;45.626;6.850;2023-03-25T03:54:12;81760.38;;;0.32;100.00
64711;BME280;51139;45.626;6.850;2023-03-25T03:56:46;81750.16;;;0.34;100.00
64711;BME280;51139;45.626;6.850;2023-03-25T03:59:26;81748.94;;;-0.11;100.00
64711;BME280;51139;45.626;6.850;2023-03-25T04:01:59;81743.00;;;0.07;100.00
64711;BME280;51139;45.626;6.850;2023-03-25T04:04:25;81752.38;;;0.43;100.00
64711;BME280;51139;45.626;6.850;2023-03-25T04:07:14;81743.00;;;0.53;100.00
64711;BME280;51139;45.626;6.850;2023-03-25T04:12:18;81733.78;;;0.52;100.00
64711;BME280;51139;45.626;6.850;2023-03-25T04:14:45;81730.97;;;0.77;100.00
64711;BME280;51139;45.626;6.850;2023-03-25T04:17:11;81728.84;;;0.76;100.00
64711;BME280;51139;45.626;6.850;2023-03-25T04:19:37;81727.34;;;0.67;100.00
64711;BME280;51139;45.626;6.850;2023-03-25T04:22:04;81732.16;;;0.90;100.00
64711;BME280;51139;45.626;6.850;2023-03-25T04:24:29;81733.69;;;0.98;100.00
64711;BME280;51139;45.626;6.850;2023-03-25T04:26:59;81722.34;;;0.96;100.00
64711;BME280;51139;45.626;6.850;2023-03-25T04:29:29;81721.13;;;0.97;100.00
64711;BME280;51139;45.626;6.850;2023-03-25T04:31:55;81728.22;;;0.42;100.00
64711;BME280;51139;45.626;6.850;2023-03-25T04:34:21;81733.56;;;0.64;100.00
64711;BME280;51139;45.626;6.850;2023-03-25T04:36:47;81739.56;;;0.45;100.00
64711;BME280;51139;45.626;6.850;2023-03-25T04:39:15;81737.22;;;0.28;100.00
64711;BME280;51139;45.626;6.850;2023-03-25T04:41:42;81728.91;;;0.29;100.00
64711;BME280;51139;45.626;6.850;2023-03-25T04:44:09;81736.50;;;0.14;100.00
64711;BME280;51139;45.626;6.850;2023-03-25T04:46:35;81729.22;;;-0.39;100.00
64711;BME280;51139;45.626;6.850;2023-03-25T04:49:02;81724.06;;;-0.26;100.00
64711;BME280;51139;45.626;6.850;2023-03-25T04:51:30;81735.97;;;-0.50;100.00
64711;BME280;51139;45.626;6.850;2023-03-25T04:53:57;81731.03;;;-0.34;100.00
64711;BME280;51139;45.626;6.850;2023-03-25T04:56:22;81728.63;;;-0.13;100.00
64711;BME280;51139;45.626;6.850;2023-03-25T04:58:48;81730.06;;;-0.50;100.00
64711;BME280;51139;45.626;6.850;2023-03-25T05:01:25;81731.59;;;-0.22;100.00
64711;BME280;51139;45.626;6.850;2023-03-25T05:04:02;81728.19;;;-0.17;100.00
64711;BME280;51139;45.626;6.850;2023-03-25T05:06:33;81732.22;;;-0.16;100.00
64711;BME280;51139;45.626;6.850;2023-03-25T05:09:00;81737.03;;;-0.07;100.00
64711;BME280;51139;45.626;6.850;2023-03-25T05:11:30;81737.72;;;-0.06;100.00
64711;BME280;51139;45.626;6.850;2023-03-25T05:13:56;81738.19;;;0.11;100.00
64711;BME280;51139;45.626;6.850;2023-03-25T05:16:21;81740.91;;;0.19;100.00
64711;BME280;51139;45.626;6.850;2023-03-25T05:18:47;81738.91;;;0.25;100.00
64711;BME280;51139;45.626;6.850;2023-03-25T05:21:13;81738.00;;;-0.42;100.00
64711;BME280;51139;45.626;6.850;2023-03-25T05:23:38;81747.81;;;0.03;100.00
64711;BME280;51139;45.626;6.850;2023-03-25T05:26:06;81761.69;;;-0.08;100.00
64711;BME280;51139;45.626;6.850;2023-03-25T05:28:32;81763.25;;;-0.18;100.00
64711;BME280;51139;45.626;6.850;2023-03-25T05:30:58;81770.59;;;-0.36;100.00
64711;BME280;51139;45.626;6.850;2023-03-25T05:33:24;81781.31;;;-0.26;100.00
64711;BME280;51139;45.626;6.850;2023-03-25T05:35:49;81766.63;;;-0.23;100.00
64711;BME280;51139;45.626;6.850;2023-03-25T05:38:15;81770.44;;;-0.63;100.00
64711;BME280;51139;45.626;6.850;2023-03-25T05:40:46;81770.72;;;-0.47;100.00
64711;BME280;51139;45.626;6.850;2023-03-25T05:43:13;81770.44;;;-0.63;100.00
64711;BME280;51139;45.626;6.850;2023-03-25T05:45:40;81773.41;;;-0.53;100.00
64711;BME280;51139;45.626;6.850;2023-03-25T05:48:06;81771.97;;;-0.73;100.00
64711;BME280;51139;45.626;6.850;2023-03-25T05:50:32;81772.84;;;-0.84;100.00
64711;BME280;51139;45.626;6.850;2023-03-25T05:52:58;81781.59;;;-1.06;100.00
64711;BME280;51139;45.626;6.850;2023-03-25T05:55:24;81784.00;;;-0.70;100.00
64711;BME280;51139;45.626;6.850;2023-03-25T05:57:50;81787.31;;;-0.69;100.00
64711;BME280;51139;45.626;6.850;2023-03-25T06:00:17;81775.44;;;-0.84;100.00
64711;BME280;51139;45.626;6.850;2023-03-25T06:02:46;81769.47;;;-0.79;100.00
64711;BME280;51139;45.626;6.850;2023-03-25T06:05:14;81781.47;;;-0.56;100.00
64711;BME280;51139;45.626;6.850;2023-03-25T06:07:44;81775.78;;;-0.36;100.00
64711;BME280;51139;45.626;6.850;2023-03-25T06:10:13;81788.84;;;-0.61;100.00
64711;BME280;51139;45.626;6.850;2023-03-25T06:12:41;81794.13;;;-0.85;100.00
64711;BME280;51139;45.626;6.850;2023-03-25T06:15:09;81800.66;;;-0.60;100.00
64711;BME280;51139;45.626;6.850;2023-03-25T06:17:35;81812.22;;;-0.36;100.00
64711;BME280;51139;45.626;6.850;2023-03-25T06:20:08;81808.84;;;-0.50;100.00
64711;BME280;51139;45.626;6.850;2023-03-25T06:22:40;81804.69;;;-0.78;100.00
64711;BME280;51139;45.626;6.850;2023-03-25T06:25:14;81804.59;;;-0.72;100.00
64711;BME280;51139;45.626;6.850;2023-03-25T06:27:45;81812.41;;;-0.72;100.00
64711;BME280;51139;45.626;6.850;2023-03-25T06:30:14;81803.16;;;-0.92;100.00
64711;BME280;51139;45.626;6.850;2023-03-25T06:32:39;81814.22;;;-0.86;100.00
64711;BME280;51139;45.626;6.850;2023-03-25T06:35:06;81822.19;;;-0.59;100.00
64711;BME280;51139;45.626;6.850;2023-03-25T06:37:33;81817.84;;;-0.32;100.00
64711;BME280;51139;45.626;6.850;2023-03-25T06:39:58;81825.50;;;-0.59;100.00
64711;BME280;51139;45.626;6.850;2023-03-25T06:42:27;81827.31;;;-0.53;100.00
64711;BME280;51139;45.626;6.850;2023-03-25T06:44:53;81827.59;;;-0.76;100.00
64711;BME280;51139;45.626;6.850;2023-03-25T06:47:19;81832.22;;;-0.44;100.00
64711;BME280;51139;45.626;6.850;2023-03-25T06:49:44;81841.75;;;-0.33;100.00
64711;BME280;51139;45.626;6.850;2023-03-25T06:52:10;81845.13;;;-0.38;100.00
64711;BME280;51139;45.626;6.850;2023-03-25T06:54:36;81848.66;;;-0.55;100.00
64711;BME280;51139;45.626;6.850;2023-03-25T06:57:02;81856.50;;;-0.80;100.00
64711;BME280;51139;45.626;6.850;2023-03-25T06:59:27;81849.34;;;-0.74;100.00
64711;BME280;51139;45.626;6.850;2023-03-25T07:01:52;81854.13;;;-0.59;100.00
64711;BME280;51139;45.626;6.850;2023-03-25T07:04:18;81847.25;;;-0.56;100.00
64711;BME280;51139;45.626;6.850;2023-03-25T07:06:43;81851.88;;;-0.49;100.00
64711;BME280;51139;45.626;6.850;2023-03-25T07:09:09;81853.38;;;-0.34;100.00
64711;BME280;51139;45.626;6.850;2023-03-25T07:11:34;81847.03;;;-0.58;100.00
64711;BME280;51139;45.626;6.850;2023-03-25T07:14:00;81844.78;;;-0.29;100.00
64711;BME280;51139;45.626;6.850;2023-03-25T07:16:25;81839.03;;;-0.41;100.00
64711;BME280;51139;45.626;6.850;2023-03-25T07:18:51;81852.81;;;-0.27;100.00
64711;BME280;51139;45.626;6.850;2023-03-25T07:21:17;81856.28;;;-0.38;100.00
64711;BME280;51139;45.626;6.850;2023-03-25T07:23:43;81851.75;;;-0.18;100.00
64711;BME280;51139;45.626;6.850;2023-03-25T07:26:09;81853.59;;;-0.32;100.00
64711;BME280;51139;45.626;6.850;2023-03-25T07:28:34;81852.25;;;-0.20;100.00
64711;BME280;51139;45.626;6.850;2023-03-25T07:31:05;81857.94;;;-0.40;100.00
64711;BME280;51139;45.626;6.850;2023-03-25T07:33:30;81854.63;;;-0.60;100.00
64711;BME280;51139;45.626;6.850;2023-03-25T07:35:56;81852.03;;;-0.22;100.00
64711;BME280;51139;45.626;6.850;2023-03-25T07:38:21;81858.66;;;-0.21;100.00
64711;BME280;51139;45.626;6.850;2023-03-25T07:40:47;81858.28;;;0.08;100.00
64711;BME280;51139;45.626;6.850;2023-03-25T07:43:12;81851.81;;;0.14;100.00
64711;BME280;51139;45.626;6.850;2023-03-25T07:45:37;81855.94;;;0.23;100.00
64711;BME280;51139;45.626;6.850;2023-03-25T07:48:03;81861.66;;;0.22;100.00
64711;BME280;51139;45.626;6.850;2023-03-25T07:50:28;81863.59;;;0.02;100.00
64711;BME280;51139;45.626;6.850;2023-03-25T07:52:54;81862.38;;;0.22;100.00
64711;BME280;51139;45.626;6.850;2023-03-25T07:55:20;81871.56;;;0.42;100.00
64711;BME280;51139;45.626;6.850;2023-03-25T07:57:45;81865.19;;;0.24;100.00
64711;BME280;51139;45.626;6.850;2023-03-25T08:00:12;81872.22;;;0.29;100.00
64711;BME280;51139;45.626;6.850;2023-03-25T08:02:37;81860.22;;;0.07;100.00
64711;BME280;51139;45.626;6.850;2023-03-25T08:05:03;81873.97;;;-0.36;100.00
64711;BME280;51139;45.626;6.850;2023-03-25T08:07:30;81870.34;;;-0.27;100.00
64711;BME280;51139;45.626;6.850;2023-03-25T08:09:56;81866.97;;;-0.22;100.00
64711;BME280;51139;45.626;6.850;2023-03-25T08:12:21;81856.25;;;-0.19;100.00
64711;BME280;51139;45.626;6.850;2023-03-25T08:14:47;81863.38;;;-0.19;100.00
64711;BME280;51139;45.626;6.850;2023-03-25T08:17:12;81853.25;;;-0.04;100.00
64711;BME280;51139;45.626;6.850;2023-03-25T08:19:37;81849.75;;;-0.50;100.00
64711;BME280;51139;45.626;6.850;2023-03-25T08:22:03;81852.75;;;-0.21;100.00
64711;BME280;51139;45.626;6.850;2023-03-25T08:24:28;81852.09;;;0.11;100.00
64711;BME280;51139;45.626;6.850;2023-03-25T08:26:56;81851.13;;;-0.24;100.00
64711;BME280;51139;45.626;6.850;2023-03-25T08:29:25;81850.16;;;-0.21;100.00
64711;BME280;51139;45.626;6.850;2023-03-25T08:31:52;81843.88;;;-0.32;100.00
64711;BME280;51139;45.626;6.850;2023-03-25T08:34:19;81847.25;;;0.02;100.00
64711;BME280;51139;45.626;6.850;2023-03-25T08:36:45;81845.22;;;-0.44;100.00
64711;BME280;51139;45.626;6.850;2023-03-25T08:39:11;81839.38;;;-0.12;100.00
64711;BME280;51139;45.626;6.850;2023-03-25T08:41:37;81849.50;;;0.11;100.00
64711;BME280;51139;45.626;6.850;2023-03-25T08:44:04;81845.91;;;0.14;100.00
64711;BME280;51139;45.626;6.850;2023-03-25T08:46:30;81850.47;;;0.27;100.00
64711;BME280;51139;45.626;6.850;2023-03-25T08:48:55;81851.72;;;0.39;100.00
64711;BME280;51139;45.626;6.850;2023-03-25T08:51:21;81847.81;;;0.13;100.00
64711;BME280;51139;45.626;6.850;2023-03-25T08:53:46;81858.34;;;0.21;100.00
64711;BME280;51139;45.626;6.850;2023-03-25T08:56:12;81861.63;;;0.41;100.00
64711;BME280;51139;45.626;6.850;2023-03-25T08:58:38;81866.94;;;0.35;100.00
64711;BME280;51139;45.626;6.850;2023-03-25T09:01:04;81861.59;;;0.60;100.00
64711;BME280;51139;45.626;6.850;2023-03-25T09:03:31;81850.06;;;0.04;100.00
64711;BME280;51139;45.626;6.850;2023-03-25T09:05:56;81857.66;;;0.02;100.00
64711;BME280;51139;45.626;6.850;2023-03-25T09:08:22;81860.56;;;-0.21;100.00
64711;BME280;51139;45.626;6.850;2023-03-25T09:10:47;81862.97;;;0.28;100.00
64711;BME280;51139;45.626;6.850;2023-03-25T09:13:13;81870.22;;;0.36;100.00
64711;BME280;51139;45.626;6.850;2023-03-25T09:15:39;81866.34;;;0.42;100.00
64711;BME280;51139;45.626;6.850;2023-03-25T09:18:04;81875.31;;;0.47;100.00
64711;BME280;51139;45.626;6.850;2023-03-25T09:20:30;81890.69;;;0.64;100.00
64711;BME280;51139;45.626;6.850;2023-03-25T09:22:56;81891.84;;;0.50;100.00
64711;BME280;51139;45.626;6.850;2023-03-25T09:25:22;81891.84;;;0.50;100.00
64711;BME280;51139;45.626;6.850;2023-03-25T09:27:48;81891.78;;;0.55;100.00
64711;BME280;51139;45.626;6.850;2023-03-25T09:30:13;81886.03;;;-0.14;100.00
64711;BME280;51139;45.626;6.850;2023-03-25T09:32:40;81891.94;;;0.25;100.00
64711;BME280;51139;45.626;6.850;2023-03-25T09:35:05;81883.84;;;0.28;100.00
64711;BME280;51139;45.626;6.850;2023-03-25T09:37:31;81876.31;;;0.06;100.00
64711;BME280;51139;45.626;6.850;2023-03-25T09:39:57;81869.63;;;-0.09;100.00
64711;BME280;51139;45.626;6.850;2023-03-25T09:45:21;81879.16;;;0.60;100.00
64711;BME280;51139;45.626;6.850;2023-03-25T09:50:37;81882.19;;;0.45;100.00
64711;BME280;51139;45.626;6.850;2023-03-25T09:53:10;81865.34;;;0.13;100.00
64711;BME280;51139;45.626;6.850;2023-03-25T09:55:41;81864.69;;;0.26;100.00
64711;BME280;51139;45.626;6.850;2023-03-25T10:03:46;81881.25;;;0.09;100.00
64711;BME280;51139;45.626;6.850;2023-03-25T10:06:20;81885.75;;;0.28;100.00
64711;BME280;51139;45.626;6.850;2023-03-25T10:11:24;81880.84;;;-0.58;100.00
64711;BME280;51139;45.626;6.850;2023-03-25T10:14:10;81897.31;;;0.13;100.00
64711;BME280;51139;45.626;6.850;2023-03-25T10:25:31;81891.25;;;0.05;100.00
64711;BME280;51139;45.626;6.850;2023-03-25T10:27:59;81897.00;;;0.36;100.00
64711;BME280;51139;45.626;6.850;2023-03-25T10:30:30;81898.63;;;0.39;100.00
64711;BME280;51139;45.626;6.850;2023-03-25T10:33:01;81893.97;;;0.51;100.00
64711;BME280;51139;45.626;6.850;2023-03-25T10:35:46;81890.84;;;0.53;100.00
64711;BME280;51139;45.626;6.850;2023-03-25T10:38:18;81896.47;;;0.57;100.00
64711;BME280;51139;45.626;6.850;2023-03-25T10:40:49;81901.66;;;0.76;100.00
64711;BME280;51139;45.626;6.850;2023-03-25T10:46:01;81895.66;;;0.81;100.00
64711;BME280;51139;45.626;6.850;2023-03-25T10:48:30;81894.88;;;0.54;100.00
64711;BME280;51139;45.626;6.850;2023-03-25T10:51:03;81901.41;;;0.61;100.00
64711;BME280;51139;45.626;6.850;2023-03-25T10:53:31;81896.22;;;0.41;100.00
64711;BME280;51139;45.626;6.850;2023-03-25T10:56:10;81887.38;;;0.12;100.00
64711;BME280;51139;45.626;6.850;2023-03-25T10:58:37;81890.19;;;0.66;100.00
64711;BME280;51139;45.626;6.850;2023-03-25T11:01:15;81892.66;;;0.58;100.00
64711;BME280;51139;45.626;6.850;2023-03-25T11:03:43;81889.75;;;0.48;100.00
64711;BME280;51139;45.626;6.850;2023-03-25T11:06:29;81899.25;;;0.78;100.00
64711;BME280;51139;45.626;6.850;2023-03-25T11:09:25;81909.22;;;0.61;100.00
64711;BME280;51139;45.626;6.850;2023-03-25T11:11:52;81901.38;;;0.09;100.00
64711;BME280;51139;45.626;6.850;2023-03-25T11:14:22;81909.19;;;0.47;100.00
64711;BME280;51139;45.626;6.850;2023-03-25T11:16:54;81906.81;;;0.30;100.00
64711;BME280;51139;45.626;6.850;2023-03-25T11:19:26;81899.47;;;0.28;100.00
64711;BME280;51139;45.626;6.850;2023-03-25T11:21:56;81913.56;;;0.20;100.00
64711;BME280;51139;45.626;6.850;2023-03-25T11:24:22;81906.09;;;0.29;100.00
64711;BME280;51139;45.626;6.850;2023-03-25T11:26:52;81908.63;;;0.54;100.00
64711;BME280;51139;45.626;6.850;2023-03-25T11:29:19;81910.81;;;0.31;100.00
64711;BME280;51139;45.626;6.850;2023-03-25T11:32:06;81911.94;;;0.17;100.00
64711;BME280;51139;45.626;6.850;2023-03-25T11:34:34;81908.47;;;0.27;100.00
64711;BME280;51139;45.626;6.850;2023-03-25T11:37:15;81898.34;;;0.24;100.00
64711;BME280;51139;45.626;6.850;2023-03-25T11:39:41;81886.44;;;0.28;100.00
64711;BME280;51139;45.626;6.850;2023-03-25T11:44:54;81892.97;;;0.54;100.00
64711;BME280;51139;45.626;6.850;2023-03-25T11:47:28;81890.19;;;0.66;100.00
64711;BME280;51139;45.626;6.850;2023-03-25T11:49:55;81879.53;;;0.31;100.00
64711;BME280;51139;45.626;6.850;2023-03-25T11:52:23;81896.28;;;0.55;100.00
64711;BME280;51139;45.626;6.850;2023-03-25T11:54:52;81904.09;;;0.55;100.00
64711;BME280;51139;45.626;6.850;2023-03-25T11:57:22;81891.63;;;0.80;100.00
64711;BME280;51139;45.626;6.850;2023-03-25T11:59:59;81897.41;;;0.92;100.00
64711;BME280;51139;45.626;6.850;2023-03-25T12:02:37;81904.88;;;0.82;100.00
64711;BME280;51139;45.626;6.850;2023-03-25T12:05:18;81891.97;;;0.57;100.00
64711;BME280;51139;45.626;6.850;2023-03-25T12:07:46;81893.25;;;0.51;100.00
64711;BME280;51139;45.626;6.850;2023-03-25T12:10:16;81901.34;;;0.80;100.00
64711;BME280;51139;45.626;6.850;2023-03-25T12:18:08;81894.84;;;0.73;100.00
64711;BME280;51139;45.626;6.850;2023-03-25T12:21:00;81891.19;;;0.95;100.00
64711;BME280;51139;45.626;6.850;2023-03-25T12:26:43;81879.47;;;1.15;100.00
64711;BME280;51139;45.626;6.850;2023-03-25T12:29:29;81880.78;;;1.36;100.00
64711;BME280;51139;45.626;6.850;2023-03-25T12:37:35;81882.56;;;1.00;100.00
64711;BME280;51139;45.626;6.850;2023-03-25T12:42:53;81878.78;;;1.15;100.00
64711;BME280;51139;45.626;6.850;2023-03-25T12:48:16;81872.84;;;1.14;100.00
64711;BME280;51139;45.626;6.850;2023-03-25T12:53:47;81888.25;;;0.85;100.00
64711;BME280;51139;45.626;6.850;2023-03-25T12:59:30;81871.16;;;1.30;100.00
64711;BME280;51139;45.626;6.850;2023-03-25T13:07:33;81850.59;;;2.15;100.00
64711;BME280;51139;45.626;6.850;2023-03-25T13:10:13;81861.81;;;2.37;100.00
64711;BME280;51139;45.626;6.850;2023-03-25T13:12:42;81856.31;;;1.79;100.00
64711;BME280;51139;45.626;6.850;2023-03-25T13:15:36;81874.38;;;1.64;100.00
64711;BME280;51139;45.626;6.850;2023-03-25T13:21:03;81875.97;;;1.40;100.00
64711;BME280;51139;45.626;6.850;2023-03-25T13:23:33;81878.47;;;1.19;100.00
64711;BME280;51139;45.626;6.850;2023-03-25T13:26:05;81872.66;;;1.26;100.00
64711;BME280;51139;45.626;6.850;2023-03-25T13:28:46;81876.25;;;1.23;100.00
64711;BME280;51139;45.626;6.850;2023-03-25T13:31:20;81879.22;;;0.86;100.00
64711;BME280;51139;45.626;6.850;2023-03-25T13:34:09;81870.13;;;1.07;100.00
64711;BME280;51139;45.626;6.850;2023-03-25T13:36:43;81868.53;;;1.17;100.00
64711;BME280;51139;45.626;6.850;2023-03-25T13:39:17;81859.38;;;1.10;100.00
64711;BME280;51139;45.626;6.850;2023-03-25T13:42:05;81867.63;;;1.14;100.00
64711;BME280;51139;45.626;6.850;2023-03-25T13:44:38;81859.34;;;0.83;100.00
64711;BME280;51139;45.626;6.850;2023-03-25T13:47:18;81858.84;;;0.85;100.00
64711;BME280;51139;45.626;6.850;2023-03-25T13:49:51;81864.91;;;0.61;100.00
64711;BME280;51139;45.626;6.850;2023-03-25T13:52:20;81877.94;;;0.93;100.00
64711;BME280;51139;45.626;6.850;2023-03-25T14:00:15;81878.47;;;1.19;100.00
64711;BME280;51139;45.626;6.850;2023-03-25T14:06:02;81882.13;;;1.56;100.00
64711;BME280;51139;45.626;6.850;2023-03-25T14:11:27;81890.16;;;1.71;100.00
64711;BME280;51139;45.626;6.850;2023-03-25T14:13:57;81886.13;;;1.84;100.00
64711;BME280;51139;45.626;6.850;2023-03-25T14:16:29;81885.94;;;1.68;100.00
64711;BME280;51139;45.626;6.850;2023-03-25T14:19:02;81888.03;;;1.97;100.00
64711;BME280;51139;45.626;6.850;2023-03-25T14:26:45;81891.59;;;2.21;100.00
64711;BME280;51139;45.626;6.850;2023-03-25T14:29:40;81896.88;;;1.80;100.00
64711;BME280;51139;45.626;6.850;2023-03-25T14:34:30;81884.13;;;1.77;100.00
64711;BME280;51139;45.626;6.850;2023-03-25T14:42:09;81871.63;;;1.96;100.00
64711;BME280;51139;45.626;6.850;2023-03-25T14:44:42;81865.00;;;1.95;100.00
64711;BME280;51139;45.626;6.850;2023-03-25T14:49:47;81850.50;;;2.08;100.00
64711;BME280;51139;45.626;6.850;2023-03-25T14:54:59;81858.59;;;1.83;100.00
64711;BME280;51139;45.626;6.850;2023-03-25T14:57:39;81869.94;;;1.72;100.00
64711;BME280;51139;45.626;6.850;2023-03-25T15:00:07;81866.66;;;1.71;100.00
64711;BME280;51139;45.626;6.850;2023-03-25T15:02:43;81870.25;;;1.82;100.00
64711;BME280;51139;45.626;6.850;2023-03-25T15:05:22;81878.28;;;1.30;100.00
64711;BME280;51139;45.626;6.850;2023-03-25T15:08:10;81873.09;;;1.43;100.00
64711;BME280;51139;45.626;6.850;2023-03-25T15:10:40;81877.69;;;1.37;100.00
64711;BME280;51139;45.626;6.850;2023-03-25T15:13:23;81877.78;;;1.58;100.00
64711;BME280;51139;45.626;6.850;2023-03-25T15:21:08;81874.41;;;2.25;97.84
64711;BME280;51139;45.626;6.850;2023-03-25T15:23:42;81878.25;;;2.11;97.11
64711;BME280;51139;45.626;6.850;2023-03-25T15:26:39;81878.44;;;2.13;99.54
64711;BME280;51139;45.626;6.850;2023-03-25T15:37:42;81875.31;;;2.28;100.00
64711;BME280;51139;45.626;6.850;2023-03-25T15:46:40;81871.63;;;2.23;94.55
64711;BME280;51139;45.626;6.850;2023-03-25T15:49:57;81878.63;;;2.28;90.07